Time;durP1;ratioP1;P1;durP2;ratioP2;P2;SDS_P1;SDS_P2;PMS_P1;PMS_P2;Temp;Humidity;BMP_temperature;BMP_pressure;BME280_temperature;BME280_humidity;BME280_pressure;Samples;Min_cycle;Max_cycle;Signal;HPM_P1;HPM_P2
2022/09/20 00:00:15;;;;;;;3.25;0.93;;;;;;;8.33;100.00;98819.66;5048730;28;20032;-63
2022/09/20 00:03:20;;;;;;;2.10;0.80;;;;;;;8.26;100.00;98827.00;5045332;28;20037;-61
2022/09/20 00:06:06;;;;;;;1.95;0.70;;;;;;;8.38;100.00;98830.66;5070668;28;20033;-61
2022/09/20 00:08:52;;;;;;;0.88;0.57;;;;;;;8.23;100.00;98828.03;5045580;28;20068;-61
2022/09/20 00:11:37;;;;;;;1.63;0.80;;;;;;;8.21;100.00;98836.88;5058238;28;20045;-62
2022/09/20 00:14:21;;;;;;;1.10;0.80;;;;;;;8.18;100.00;98834.41;5049195;28;20042;-61
2022/09/20 00:17:06;;;;;;;2.20;0.95;;;;;;;8.31;100.00;98842.38;5047300;28;20037;-62
2022/09/20 00:19:53;;;;;;;0.93;0.50;;;;;;;8.29;100.00;98839.88;5044296;28;20056;-62
2022/09/20 00:22:38;;;;;;;1.52;0.70;;;;;;;8.22;100.00;98836.78;5050772;28;20124;-62
2022/09/20 00:25:23;;;;;;;1.05;0.52;;;;;;;8.24;100.00;98834.91;5040227;28;20453;-63
2022/09/20 00:28:08;;;;;;;2.55;0.90;;;;;;;8.24;100.00;98840.13;5036093;28;20095;-61
2022/09/20 00:30:54;;;;;;;2.25;0.70;;;;;;;8.30;100.00;98838.09;5039278;28;20029;-60
2022/09/20 00:36:42;;;;;;;4.10;0.75;;;;;;;8.28;100.00;98845.16;5051127;28;20049;-61
2022/09/20 00:39:27;;;;;;;1.60;0.77;;;;;;;8.34;100.00;98842.22;5041857;28;20033;-62
2022/09/20 00:42:13;;;;;;;2.00;0.70;;;;;;;8.30;100.00;98843.31;5043175;28;20424;-61
2022/09/20 00:45:00;;;;;;;1.73;0.50;;;;;;;8.43;100.00;98844.31;5037006;28;20037;-63
2022/09/20 00:47:52;;;;;;;1.88;0.57;;;;;;;8.38;100.00;98841.97;5047090;28;20405;-61
2022/09/20 00:50:53;;;;;;;1.35;0.60;;;;;;;8.26;100.00;98850.47;5041801;28;20042;-61
2022/09/20 00:53:43;;;;;;;2.65;0.70;;;;;;;8.19;100.00;98847.41;5037946;28;20056;-62
2022/09/20 00:56:35;;;;;;;1.45;0.63;;;;;;;8.25;100.00;98864.47;5051580;28;20035;-62
2022/09/20 00:59:29;;;;;;;0.70;0.57;;;;;;;8.17;100.00;98858.84;5046031;28;20507;-62
2022/09/20 01:02:19;;;;;;;1.10;0.70;;;;;;;8.24;100.00;98853.19;5052413;28;20534;-61
2022/09/20 01:05:04;;;;;;;3.65;0.73;;;;;;;8.13;100.00;98852.97;5053800;28;20118;-61
2022/09/20 01:07:50;;;;;;;1.27;0.70;;;;;;;8.13;100.00;98843.38;5051575;28;20521;-62
2022/09/20 01:10:35;;;;;;;1.45;0.80;;;;;;;8.10;100.00;98851.38;5055262;28;20381;-61
2022/09/20 01:13:20;;;;;;;3.08;0.80;;;;;;;8.11;100.00;98857.44;5042327;28;20435;-62
2022/09/20 01:16:06;;;;;;;2.42;0.80;;;;;;;7.94;100.00;98853.16;5046313;28;20183;-63
2022/09/20 01:18:51;;;;;;;4.25;1.02;;;;;;;8.03;100.00;98851.81;5049434;28;20048;-61
2022/09/20 01:21:36;;;;;;;2.00;0.90;;;;;;;7.88;100.00;98847.34;5050999;28;20130;-63
2022/09/20 01:24:39;;;;;;;2.03;0.73;;;;;;;7.83;100.00;98845.94;5047855;28;20044;-63
2022/09/20 01:27:45;;;;;;;1.75;0.90;;;;;;;7.78;100.00;98851.44;5049539;28;20127;-63
2022/09/20 01:30:40;;;;;;;2.20;0.80;;;;;;;7.77;100.00;98844.50;5048785;28;20043;-61
2022/09/20 01:33:36;;;;;;;2.88;0.77;;;;;;;7.76;100.00;98829.81;5052391;28;20544;-62
2022/09/20 01:36:36;;;;;;;2.80;1.02;;;;;;;7.74;100.00;98832.50;5047201;28;20491;-62
2022/09/20 01:39:40;;;;;;;3.95;1.13;;;;;;;7.67;100.00;98833.75;5044796;28;20496;-61
2022/09/20 01:42:35;;;;;;;2.78;1.00;;;;;;;7.72;100.00;98838.72;5026070;28;20034;-62
2022/09/20 01:45:27;;;;;;;3.75;1.15;;;;;;;7.61;100.00;98834.94;5026708;28;20105;-63
2022/09/20 01:48:33;;;;;;;2.38;0.98;;;;;;;7.59;100.00;98835.97;5030626;28;20139;-62
2022/09/20 01:51:36;;;;;;;2.38;1.10;;;;;;;7.61;100.00;98828.88;5029029;28;20049;-62
2022/09/20 01:54:47;;;;;;;4.70;1.35;;;;;;;7.69;100.00;98831.06;5031774;28;20087;-61
2022/09/20 01:58:14;;;;;;;2.53;1.27;;;;;;;7.68;100.00;98825.03;5030565;28;20100;-61
2022/09/20 02:01:36;;;;;;;3.40;1.10;;;;;;;7.65;100.00;98825.19;5034426;28;20037;-61
2022/09/20 02:04:58;;;;;;;4.65;1.08;;;;;;;7.66;100.00;98829.47;5026415;28;20117;-61
2022/09/20 02:08:04;;;;;;;3.08;1.00;;;;;;;7.81;100.00;98829.53;5025526;28;20046;-62
2022/09/20 02:11:04;;;;;;;1.55;0.95;;;;;;;7.70;100.00;98831.00;5031007;28;20136;-62
2022/09/20 02:14:02;;;;;;;3.60;1.10;;;;;;;7.85;100.00;98833.66;5028014;28;20037;-61
2022/09/20 02:17:10;;;;;;;1.73;0.90;;;;;;;8.06;100.00;98828.16;5030629;28;20076;-60
2022/09/20 02:20:02;;;;;;;2.42;1.13;;;;;;;7.98;100.00;98833.81;5031111;28;20044;-61
2022/09/20 02:22:59;;;;;;;;;;;;;;;7.91;100.00;98830.72;5026300;28;20057;-60
2022/09/20 02:25:59;;;;;;;3.67;1.20;;;;;;;7.95;100.00;98834.81;5033369;28;19952;-61
2022/09/20 02:28:58;;;;;;;1.92;1.10;;;;;;;7.84;100.00;98837.19;5032509;28;20080;-61
2022/09/20 02:32:22;;;;;;;1.98;1.00;;;;;;;7.72;100.00;98833.50;5031206;28;20172;-60
2022/09/20 02:35:32;;;;;;;2.88;1.20;;;;;;;7.79;100.00;98831.38;5030157;28;20030;-61
2022/09/20 02:38:46;;;;;;;2.72;1.00;;;;;;;7.89;100.00;98833.41;5031585;28;20050;-61
2022/09/20 02:42:01;;;;;;;2.20;0.90;;;;;;;7.77;100.00;98834.06;5045598;28;20052;-61
2022/09/20 02:45:12;;;;;;;1.48;0.90;;;;;;;7.82;100.00;98831.22;5048750;28;20052;-60
2022/09/20 02:48:03;;;;;;;5.38;1.42;;;;;;;7.83;100.00;98828.53;5048430;28;20119;-62
2022/09/20 02:51:03;;;;;;;1.80;1.00;;;;;;;7.92;100.00;98839.34;5059855;28;20066;-61
2022/09/20 02:53:56;;;;;;;1.80;1.10;;;;;;;7.90;100.00;98839.44;5049998;28;20087;-60
2022/09/20 02:57:10;;;;;;;2.92;1.00;;;;;;;7.79;100.00;98840.06;5046853;28;20044;-60
2022/09/20 03:00:11;;;;;;;2.00;0.90;;;;;;;7.80;100.00;98846.13;5044946;28;20564;-60
2022/09/20 03:03:07;;;;;;;2.10;0.90;;;;;;;7.91;100.00;98840.28;5041664;28;20541;-61
2022/09/20 03:06:11;;;;;;;2.80;1.13;;;;;;;7.95;100.00;98850.47;5050309;28;20437;-61
2022/09/20 03:09:10;;;;;;;1.33;0.80;;;;;;;7.99;100.00;98836.34;5044381;28;20060;-61
2022/09/20 03:12:23;;;;;;;0.80;0.55;;;;;;;8.04;100.00;98833.47;5049134;28;20052;-61
2022/09/20 03:15:29;;;;;;;2.33;0.68;;;;;;;8.05;100.00;98834.28;5042416;28;20373;-61
2022/09/20 03:18:36;;;;;;;2.88;1.00;;;;;;;8.09;100.00;98846.25;5047563;28;20045;-60
2022/09/20 03:21:34;;;;;;;2.45;1.15;;;;;;;8.35;100.00;98841.28;5039365;28;20122;-61
2022/09/20 03:24:33;;;;;;;2.05;0.90;;;;;;;8.31;100.00;98853.69;5049407;28;20103;-61
2022/09/20 03:27:39;;;;;;;2.55;0.80;;;;;;;8.19;100.00;98855.25;5046153;28;20033;-61
2022/09/20 03:30:36;;;;;;;1.40;0.80;;;;;;;8.35;100.00;98855.19;5044854;28;20045;-60
2022/09/20 03:33:58;;;;;;;1.80;0.93;;;;;;;8.18;100.00;98855.31;5036567;28;20555;-61
2022/09/20 03:36:55;;;;;;;2.15;0.80;;;;;;;8.31;100.00;98860.66;5043207;28;20120;-60
2022/09/20 03:39:45;;;;;;;2.38;1.30;;;;;;;8.39;100.00;98858.44;5039773;28;20072;-62
2022/09/20 03:42:30;;;;;;;3.58;1.10;;;;;;;8.19;100.00;98857.00;5045008;28;20124;-60
2022/09/20 03:45:33;;;;;;;3.60;1.25;;;;;;;8.25;100.00;98854.88;5041937;28;20029;-61
2022/09/20 03:48:23;;;;;;;2.47;1.15;;;;;;;8.30;100.00;98856.38;5044100;28;20042;-60
2022/09/20 03:51:33;;;;;;;1.48;1.00;;;;;;;8.26;100.00;98856.56;5054632;28;20132;-63
2022/09/20 03:54:36;;;;;;;2.55;1.50;;;;;;;8.43;100.00;98859.13;5037571;28;20029;-60
2022/09/20 03:57:51;;;;;;;2.20;1.33;;;;;;;8.29;100.00;98862.53;5036689;28;20088;-62
2022/09/20 04:01:03;;;;;;;2.05;1.08;;;;;;;8.31;100.00;98861.50;5047381;28;20048;-61
2022/09/20 04:03:52;;;;;;;2.03;0.90;;;;;;;8.40;100.00;98867.97;5050264;28;20506;-59
2022/09/20 04:06:58;;;;;;;2.10;1.05;;;;;;;8.31;100.00;98873.72;5040152;28;20065;-61
2022/09/20 04:10:03;;;;;;;2.83;1.10;;;;;;;8.28;100.00;98877.34;5039343;28;20033;-59
2022/09/20 04:12:56;;;;;;;2.95;1.50;;;;;;;8.32;100.00;98875.41;5036647;28;20146;-61
2022/09/20 04:16:06;;;;;;;3.80;1.30;;;;;;;8.24;100.00;98881.91;5036493;28;20037;-61
2022/09/20 04:18:58;;;;;;;2.80;1.30;;;;;;;8.28;100.00;98879.09;5041564;28;20072;-62
2022/09/20 04:21:52;;;;;;;2.75;1.20;;;;;;;8.25;100.00;98880.97;5056424;28;20039;-61
2022/09/20 04:24:47;;;;;;;2.58;1.10;;;;;;;8.31;100.00;98885.00;5028484;28;20510;-64
2022/09/20 04:27:34;;;;;;;2.45;1.00;;;;;;;8.34;100.00;98882.22;5040096;28;20155;-62
2022/09/20 04:30:21;;;;;;;2.90;1.20;;;;;;;8.45;100.00;98889.44;5047959;28;20041;-63
2022/09/20 04:33:24;;;;;;;3.00;1.08;;;;;;;8.50;100.00;98887.38;5050999;28;20032;-62
2022/09/20 04:36:37;;;;;;;3.55;1.02;;;;;;;8.54;100.00;98887.19;5054039;28;20037;-65
2022/09/20 04:39:38;;;;;;;2.20;1.20;;;;;;;8.51;100.00;98888.22;5038790;28;20128;-62
2022/09/20 04:43:00;;;;;;;3.20;1.42;;;;;;;8.56;100.00;98895.81;5040700;28;20036;-62
2022/09/20 04:46:15;;;;;;;1.38;1.00;;;;;;;8.60;100.00;98887.72;5016399;28;20435;-67
2022/09/20 04:49:30;;;;;;;2.58;1.08;;;;;;;8.77;100.00;98887.66;5042481;28;20052;-62
2022/09/20 04:52:39;;;;;;;3.70;1.20;;;;;;;8.64;100.00;98893.63;5032457;28;20373;-66
2022/09/20 04:55:43;;;;;;;5.65;1.25;;;;;;;8.69;100.00;98888.13;5051423;28;20057;-62
2022/09/20 04:58:49;;;;;;;3.00;1.30;;;;;;;8.72;100.00;98890.53;5047564;28;20045;-61
2022/09/20 05:01:35;;;;;;;2.65;1.10;;;;;;;8.67;100.00;98888.22;5050733;28;20037;-63
2022/09/20 05:04:39;;;;;;;2.72;1.05;;;;;;;8.73;100.00;98890.44;5043331;28;20065;-63
2022/09/20 05:07:45;;;;;;;2.65;1.23;;;;;;;8.89;100.00;98884.34;5050465;28;20483;-61
2022/09/20 05:10:52;;;;;;;1.25;0.88;;;;;;;8.98;100.00;98890.75;5053985;28;20092;-62
2022/09/20 05:14:23;;;;;;;1.92;1.10;;;;;;;9.05;100.00;98892.09;5009368;28;20053;-63
2022/09/20 05:17:53;;;;;;;1.35;0.80;;;;;;;9.02;100.00;98888.81;4967554;28;20642;-61
2022/09/20 05:21:15;;;;;;;2.00;0.90;;;;;;;9.13;100.00;98894.22;4896965;29;20555;-62
2022/09/20 05:24:20;;;;;;;1.15;0.85;;;;;;;9.28;100.00;98899.47;4907250;29;20127;-62
2022/09/20 05:27:11;;;;;;;2.65;0.90;;;;;;;9.39;99.72;98899.66;4913162;29;20063;-61
2022/09/20 05:30:03;;;;;;;1.50;0.85;;;;;;;9.45;100.00;98906.28;4911755;29;20062;-61
2022/09/20 05:33:07;;;;;;;1.42;1.00;;;;;;;9.45;100.00;98912.34;4904734;29;20132;-61
2022/09/20 05:36:19;;;;;;;2.13;0.90;;;;;;;9.48;100.00;98920.00;4901748;29;20121;-63
2022/09/20 05:39:22;;;;;;;2.13;0.90;;;;;;;9.53;100.00;98924.94;4902536;29;20045;-61
2022/09/20 05:42:17;;;;;;;2.63;1.13;;;;;;;9.44;100.00;98915.03;4907260;29;20044;-62
2022/09/20 05:45:39;;;;;;;2.92;1.00;;;;;;;9.27;100.00;98924.75;4887973;29;20052;-61
2022/09/20 05:48:39;;;;;;;2.42;0.70;;;;;;;9.10;100.00;98925.78;4897198;29;20067;-61
2022/09/20 05:51:55;;;;;;;1.75;0.85;;;;;;;9.15;100.00;98928.97;4889109;29;20448;-61
2022/09/20 05:55:10;;;;;;;1.50;0.68;;;;;;;9.09;100.00;98934.56;4973995;28;20053;-63
2022/09/20 05:57:55;;;;;;;2.92;0.93;;;;;;;9.01;100.00;98934.19;5028091;28;20421;-62
2022/09/20 06:00:55;;;;;;;2.22;0.70;;;;;;;9.01;100.00;98931.56;5044778;28;20041;-63
2022/09/20 06:04:24;;;;;;;2.42;0.65;;;;;;;8.97;100.00;98936.97;5048907;28;20072;-61
2022/09/20 06:07:14;;;;;;;1.17;0.82;;;;;;;8.89;100.00;98936.59;5042821;28;20045;-62
2022/09/20 06:10:23;;;;;;;2.50;1.00;;;;;;;8.88;100.00;98940.13;5042419;28;20044;-61
2022/09/20 06:13:13;;;;;;;1.48;0.80;;;;;;;8.92;100.00;98941.63;5043465;28;20420;-60
2022/09/20 06:16:03;;;;;;;1.17;0.77;;;;;;;8.95;100.00;98951.06;5044640;28;20529;-60
2022/09/20 06:19:15;;;;;;;1.80;0.75;;;;;;;8.98;100.00;98950.88;5040275;28;20043;-61
2022/09/20 06:22:11;;;;;;;1.38;0.77;;;;;;;8.92;100.00;98939.03;5036628;28;20071;-61
2022/09/20 06:25:07;;;;;;;1.25;0.75;;;;;;;8.82;100.00;98943.94;5041608;28;20056;-62
2022/09/20 06:27:57;;;;;;;1.55;0.75;;;;;;;8.76;100.00;98941.69;5040518;28;20099;-61
2022/09/20 06:30:48;;;;;;;1.55;0.70;;;;;;;8.86;100.00;98949.84;5059731;28;20108;-64
2022/09/20 06:33:43;;;;;;;1.67;0.65;;;;;;;8.90;100.00;98938.25;5044776;28;20051;-62
2022/09/20 06:42:59;;;;;;;1.77;0.60;;;;;;;9.75;100.00;98952.38;5050388;28;20473;-62
2022/09/20 06:45:44;;;;;;;0.68;0.60;;;;;;;9.47;100.00;98948.84;5046997;28;20453;-63
2022/09/20 06:48:30;;;;;;;1.67;0.60;;;;;;;9.30;100.00;98958.56;5043763;28;20037;-62
2022/09/20 06:51:15;;;;;;;1.98;0.70;;;;;;;9.14;100.00;98963.88;5039908;28;20033;-63
2022/09/20 06:54:00;;;;;;;3.38;0.52;;;;;;;9.24;100.00;98958.94;5040184;28;20034;-63
2022/09/20 06:56:46;;;;;;;0.85;0.35;;;;;;;9.14;100.00;98956.03;5040863;28;20037;-62
2022/09/20 06:59:31;;;;;;;0.90;0.43;;;;;;;9.76;100.00;98954.06;5040256;28;20392;-63
2022/09/20 07:02:16;;;;;;;3.70;0.70;;;;;;;9.68;100.00;98966.78;5043789;28;20061;-63
2022/09/20 07:05:00;;;;;;;0.88;0.40;;;;;;;10.01;98.93;98970.00;5044759;28;20060;-64
2022/09/20 07:07:46;;;;;;;1.35;0.30;;;;;;;9.56;100.00;98963.16;5048526;28;20072;-64
2022/09/20 07:10:30;;;;;;;1.40;0.50;;;;;;;9.58;100.00;98966.53;5037290;28;20046;-66
2022/09/20 07:13:18;;;;;;;0.70;0.40;;;;;;;9.63;100.00;98968.84;5041709;28;20185;-63
2022/09/20 07:16:04;;;;;;;0.65;0.30;;;;;;;9.72;100.00;98976.97;5044857;28;20036;-63
2022/09/20 07:18:51;;;;;;;1.23;0.50;;;;;;;9.85;100.00;98978.81;5039674;28;20963;-63
2022/09/20 07:21:35;;;;;;;0.70;0.40;;;;;;;9.85;100.00;98981.44;5045965;28;20048;-64
2022/09/20 07:24:20;;;;;;;1.25;0.30;;;;;;;9.79;100.00;98985.25;5041207;28;20055;-67
2022/09/20 07:27:06;;;;;;;1.10;0.40;;;;;;;9.72;100.00;98989.22;5040762;28;20040;-64
2022/09/20 07:29:50;;;;;;;1.80;0.40;;;;;;;9.68;100.00;98990.31;5043862;28;20060;-64
2022/09/20 07:32:35;;;;;;;0.77;0.43;;;;;;;9.65;100.00;98985.28;5041043;28;20046;-63
2022/09/20 07:35:19;;;;;;;1.52;0.50;;;;;;;9.76;100.00;98979.41;5049038;28;20048;-63
2022/09/20 07:38:04;;;;;;;1.00;0.50;;;;;;;9.76;100.00;98982.84;5041850;28;20049;-65
2022/09/20 07:40:59;;;;;;;1.38;0.35;;;;;;;9.70;100.00;98989.31;5044553;28;20096;-66
2022/09/20 07:43:45;;;;;;;3.00;0.40;;;;;;;9.91;100.00;98990.66;5045020;28;20043;-66
2022/09/20 07:46:34;;;;;;;0.75;0.38;;;;;;;9.97;100.00;98995.53;5039923;28;20035;-63
2022/09/20 07:49:20;;;;;;;1.02;0.50;;;;;;;9.89;100.00;98993.38;5045513;28;21465;-64
2022/09/20 07:52:06;;;;;;;0.98;0.30;;;;;;;10.00;100.00;98999.75;5039586;28;20046;-63
2022/09/20 07:54:50;;;;;;;0.82;0.40;;;;;;;9.66;100.00;99000.06;5037337;28;20040;-68
2022/09/20 07:57:37;;;;;;;1.20;0.32;;;;;;;9.75;100.00;98999.47;5039386;28;20145;-64
2022/09/20 08:00:21;;;;;;;1.63;0.30;;;;;;;9.63;100.00;99005.47;5042509;28;20509;-69
2022/09/20 08:03:06;;;;;;;0.95;0.30;;;;;;;9.48;100.00;99001.06;5046558;28;20120;-63
2022/09/20 08:05:57;;;;;;;0.77;0.40;;;;;;;9.63;100.00;99011.53;5040315;28;20503;-62
2022/09/20 08:08:42;;;;;;;0.82;0.50;;;;;;;9.73;100.00;98998.72;5044106;28;20086;-62
2022/09/20 08:11:28;;;;;;;0.70;0.40;;;;;;;10.13;100.00;98999.81;5038437;28;20596;-62
2022/09/20 08:14:14;;;;;;;1.77;0.47;;;;;;;10.35;100.00;99001.91;5043044;28;20132;-62
2022/09/20 08:16:59;;;;;;;0.55;0.40;;;;;;;10.56;100.00;99006.75;5042372;28;20127;-62
2022/09/20 08:19:44;;;;;;;2.20;0.60;;;;;;;11.05;99.22;99007.09;5039231;28;20646;-64
2022/09/20 08:22:31;;;;;;;0.98;0.40;;;;;;;11.39;96.34;98996.91;5046960;28;20037;-61
2022/09/20 08:25:16;;;;;;;0.80;0.43;;;;;;;11.92;93.71;99005.56;5041206;28;20041;-61
2022/09/20 08:28:01;;;;;;;1.17;0.77;;;;;;;11.72;93.13;98993.88;5041163;28;20051;-62
2022/09/20 08:30:45;;;;;;;1.35;0.40;;;;;;;11.80;92.29;99002.03;5044895;28;20606;-60
2022/09/20 08:33:31;;;;;;;1.20;0.52;;;;;;;12.59;89.71;99000.03;5052817;28;20037;-64
2022/09/20 08:36:18;;;;;;;4.70;0.60;;;;;;;13.01;86.12;98995.16;5040319;28;20044;-69
2022/09/20 08:39:03;;;;;;;0.63;0.25;;;;;;;13.43;85.56;98989.38;5036136;28;20117;-62
2022/09/20 08:42:11;;;;;;;1.33;0.68;;;;;;;14.95;79.87;98976.66;5046691;28;20511;-63
2022/09/20 08:45:00;;;;;;;1.95;0.45;;;;;;;15.42;75.81;98981.50;5041843;28;20571;-65
2022/09/20 08:47:56;;;;;;;2.58;0.60;;;;;;;15.84;71.58;98971.78;5043140;28;20448;-68
2022/09/20 08:50:42;;;;;;;2.67;0.63;;;;;;;15.76;71.08;98961.91;5036399;28;20049;-63
2022/09/20 08:53:28;;;;;;;1.48;0.30;;;;;;;17.00;68.09;98975.69;5043584;28;20460;-64
2022/09/20 08:56:13;;;;;;;1.00;0.35;;;;;;;16.71;66.59;98979.19;5037661;28;20484;-67
2022/09/20 08:58:59;;;;;;;2.40;0.40;;;;;;;16.25;66.40;98969.16;5042911;28;20691;-70
2022/09/20 09:01:44;;;;;;;1.13;0.30;;;;;;;16.23;67.47;98968.44;5048571;28;20054;-69
2022/09/20 09:04:35;;;;;;;0.95;0.38;;;;;;;16.22;67.65;98975.53;5041406;28;20049;-70
2022/09/20 09:07:20;;;;;;;0.98;0.47;;;;;;;16.41;67.76;98978.31;5039947;28;20065;-73
2022/09/20 09:10:07;;;;;;;2.95;0.50;;;;;;;15.07;70.07;98987.97;5046879;28;20499;-72
2022/09/20 09:12:55;;;;;;;0.90;0.40;;;;;;;14.36;75.98;98987.53;5041775;28;20055;-63
2022/09/20 09:15:42;;;;;;;1.40;0.50;;;;;;;14.37;75.01;98990.03;5040061;28;20370;-64
2022/09/20 09:18:34;;;;;;;0.93;0.30;;;;;;;13.70;77.52;98983.91;5038657;28;20052;-64
2022/09/20 09:21:30;;;;;;;1.48;0.47;;;;;;;13.75;77.96;98993.13;5042109;28;20116;-65
2022/09/20 09:24:19;;;;;;;1.23;0.50;;;;;;;14.32;74.65;98991.34;5042258;28;20441;-70
2022/09/20 09:27:15;;;;;;;0.70;0.30;;;;;;;12.57;81.17;98995.72;5042122;28;20119;-73
2022/09/20 09:30:00;;;;;;;0.40;0.20;;;;;;;12.84;81.11;98987.69;5047144;28;20052;-74
2022/09/20 09:32:45;;;;;;;1.60;0.20;;;;;;;12.90;82.07;98995.13;5042795;28;20048;-70
2022/09/20 09:35:30;;;;;;;0.40;0.30;;;;;;;12.93;80.56;98989.63;5042916;28;20033;-68
2022/09/20 09:38:30;;;;;;;1.10;0.38;;;;;;;12.44;81.87;98985.28;5044058;28;20059;-68
2022/09/20 09:41:26;;;;;;;0.70;0.30;;;;;;;12.69;80.94;98988.75;5041380;28;20141;-67
2022/09/20 09:44:26;;;;;;;3.25;0.30;;;;;;;13.16;81.33;98998.44;5040393;28;20452;-66
2022/09/20 09:47:26;;;;;;;2.45;0.30;;;;;;;12.47;85.86;98991.28;5053510;28;20132;-65
2022/09/20 09:50:22;;;;;;;0.30;0.20;;;;;;;11.53;84.88;98989.88;5047381;28;20057;-66
2022/09/20 09:53:12;;;;;;;1.75;0.30;;;;;;;11.21;86.91;98996.41;5038426;28;20033;-65
2022/09/20 09:56:06;;;;;;;0.57;0.20;;;;;;;11.42;87.52;98993.25;5042668;28;20514;-66
2022/09/20 09:59:06;;;;;;;1.17;0.30;;;;;;;11.20;89.20;98989.44;5046596;28;20115;-66
2022/09/20 10:02:07;;;;;;;0.20;0.10;;;;;;;11.59;89.05;98992.06;5037469;28;20071;-65
2022/09/20 10:05:12;;;;;;;0.70;0.33;;;;;;;11.27;88.09;98987.25;5043343;28;20037;-67
2022/09/20 10:08:21;;;;;;;0.38;0.30;;;;;;;12.25;91.96;98980.53;5041514;28;20536;-66
2022/09/20 10:11:36;;;;;;;2.42;0.38;;;;;;;11.91;91.21;98983.72;5040148;28;20032;-65
2022/09/20 10:14:48;;;;;;;1.40;0.47;;;;;;;12.72;89.78;98982.41;5044500;28;20037;-66
2022/09/20 10:18:10;;;;;;;0.35;0.30;;;;;;;13.57;91.97;98978.75;5044233;28;20045;-66
2022/09/20 10:21:09;;;;;;;0.60;0.40;;;;;;;14.10;83.89;98977.28;5038259;28;20053;-66
2022/09/20 10:24:16;;;;;;;0.63;0.30;;;;;;;13.85;76.71;98982.72;5042994;28;20945;-65
2022/09/20 10:27:07;;;;;;;1.02;0.28;;;;;;;14.65;74.95;98979.03;5040885;28;20045;-66
2022/09/20 10:30:03;;;;;;;0.20;0.20;;;;;;;13.87;76.48;98974.69;5038892;28;20044;-65
2022/09/20 10:33:02;;;;;;;1.95;0.40;;;;;;;14.23;77.83;98974.50;5035774;28;20116;-66
2022/09/20 10:35:50;;;;;;;0.38;0.20;;;;;;;14.69;75.56;98977.00;5049618;28;20057;-65
2022/09/20 10:38:44;;;;;;;1.08;0.40;;;;;;;15.29;72.24;98978.25;5034754;28;20193;-65
2022/09/20 10:45:15;;;;;;;1.50;0.40;;;;;;;14.51;73.13;98973.09;5035352;28;20040;-63
2022/09/20 10:48:07;;;;;;;0.60;0.30;;;;;;;16.42;67.89;98966.81;5035349;28;20055;-64
2022/09/20 10:51:09;;;;;;;1.15;0.30;;;;;;;15.85;67.59;98969.03;5042691;28;20108;-62
2022/09/20 10:54:05;;;;;;;0.77;0.55;;;;;;;14.78;69.51;98977.06;5036087;28;20040;-62
2022/09/20 10:56:55;;;;;;;0.52;0.40;;;;;;;14.75;72.71;98968.56;5038729;28;20037;-63
2022/09/20 10:59:50;;;;;;;1.73;0.32;;;;;;;15.27;70.43;98966.03;5043176;28;20135;-64
2022/09/20 11:03:00;;;;;;;0.43;0.20;;;;;;;15.61;70.60;98959.63;5045049;28;20483;-59
2022/09/20 11:05:50;;;;;;;0.50;0.40;;;;;;;15.03;68.89;98964.47;5033903;28;20448;-62
2022/09/20 11:08:37;;;;;;;0.90;0.30;;;;;;;13.67;73.97;98969.19;5037412;28;20091;-64
2022/09/20 11:11:29;;;;;;;1.00;0.30;;;;;;;14.31;72.56;98969.47;5041247;28;20131;-65
2022/09/20 11:14:20;;;;;;;1.45;0.50;;;;;;;14.36;74.78;98975.16;5035102;28;20049;-65
2022/09/20 11:17:18;;;;;;;0.67;0.40;;;;;;;13.83;74.31;98971.47;5037142;28;20484;-65
2022/09/20 11:20:19;;;;;;;1.67;0.50;;;;;;;14.25;74.21;98976.06;5040538;28;20397;-66
2022/09/20 11:23:17;;;;;;;1.45;0.40;;;;;;;14.88;72.84;98971.88;5042599;28;20037;-64
2022/09/20 11:26:35;;;;;;;1.23;0.30;;;;;;;15.12;69.53;98965.50;5031984;28;20039;-65
2022/09/20 11:29:39;;;;;;;0.40;0.20;;;;;;;14.50;70.12;98962.66;5037579;28;20048;-65
2022/09/20 11:32:38;;;;;;;0.63;0.30;;;;;;;14.47;70.13;98969.03;5057221;28;20536;-65
2022/09/20 11:35:30;;;;;;;0.60;0.40;;;;;;;12.98;74.46;98976.97;5073598;28;20044;-66
2022/09/20 11:38:27;;;;;;;0.40;0.20;;;;;;;12.62;77.92;98973.50;5048657;28;20039;-66
2022/09/20 11:41:24;;;;;;;0.50;0.22;;;;;;;12.50;74.81;98973.47;5040140;28;20049;-66
2022/09/20 11:44:14;;;;;;;0.20;0.10;;;;;;;12.30;74.67;98973.16;5040317;28;20128;-67
2022/09/20 11:47:11;;;;;;;0.52;0.10;;;;;;;11.97;75.93;98971.13;5042364;28;20045;-67
2022/09/20 11:50:01;;;;;;;0.65;0.25;;;;;;;11.99;79.35;98967.44;5042232;28;20394;-68
2022/09/20 11:53:14;;;;;;;0.75;0.20;;;;;;;12.60;79.48;98972.81;5050127;28;20069;-67
2022/09/20 11:56:04;;;;;;;0.22;0.20;;;;;;;13.37;77.17;98984.59;5035710;28;20037;-66
2022/09/20 11:58:51;;;;;;;0.47;0.22;;;;;;;14.76;74.95;98981.63;5040766;28;20495;-65
2022/09/20 12:01:41;;;;;;;0.68;0.25;;;;;;;16.23;71.06;98973.72;5042483;28;20067;-64
2022/09/20 12:04:30;;;;;;;0.20;0.15;;;;;;;14.66;73.83;98967.53;5033653;28;20048;-66
2022/09/20 12:07:19;;;;;;;0.28;0.13;;;;;;;14.01;75.30;98969.16;5032674;28;20465;-66
2022/09/20 12:10:19;;;;;;;0.30;0.20;;;;;;;13.11;77.38;98968.16;5031202;28;20044;-65
2022/09/20 12:13:07;;;;;;;1.65;0.10;;;;;;;11.79;82.96;98972.31;5041331;28;20042;-60
2022/09/20 12:16:03;;;;;;;0.80;0.20;;;;;;;12.25;81.79;98977.06;5035827;28;20051;-62
2022/09/20 12:18:52;;;;;;;1.77;0.20;;;;;;;11.97;83.15;98979.84;5023287;28;20041;-62
2022/09/20 12:21:58;;;;;;;0.68;0.20;;;;;;;11.42;85.01;98982.75;5032129;28;20139;-63
2022/09/20 12:24:43;;;;;;;0.17;0.10;;;;;;;11.01;88.16;98972.34;5033058;28;20094;-63
2022/09/20 12:27:31;;;;;;;0.50;0.20;;;;;;;11.05;88.85;98973.81;5037560;28;20424;-65
2022/09/20 12:30:20;;;;;;;0.63;0.20;;;;;;;11.06;88.52;98978.13;5037558;28;20049;-61
2022/09/20 12:33:19;;;;;;;0.10;0.10;;;;;;;11.34;87.39;98981.47;5059290;28;20037;-59
2022/09/20 12:36:18;;;;;;;1.45;0.40;;;;;;;12.92;83.81;98990.59;5045658;28;20041;-60
2022/09/20 12:39:16;;;;;;;1.38;0.10;;;;;;;14.80;71.78;98979.59;5044830;28;20055;-60
2022/09/20 12:42:13;;;;;;;0.20;0.10;;;;;;;14.80;70.70;98984.88;5038098;28;20542;-60
2022/09/20 12:45:03;;;;;;;0.30;0.10;;;;;;;14.86;68.29;98981.72;5045615;28;20052;-59
2022/09/20 12:47:55;;;;;;;0.35;0.10;;;;;;;13.10;74.54;98975.22;5037313;28;20033;-60
2022/09/20 12:54:16;;;;;;;0.77;0.17;;;;;;;14.70;71.85;98983.94;5044435;28;20132;-60
2022/09/20 12:57:17;;;;;;;0.65;0.20;;;;;;;14.39;71.29;98976.75;5037094;28;20041;-60
2022/09/20 13:00:05;;;;;;;0.10;0.08;;;;;;;14.37;71.07;98973.38;5048116;28;20111;-60
2022/09/20 13:02:50;;;;;;;0.50;0.10;;;;;;;14.58;69.69;98976.06;5051708;28;20099;-58
2022/09/20 13:05:39;;;;;;;0.35;0.10;;;;;;;15.20;67.77;98972.78;5034633;28;20061;-62
2022/09/20 13:08:27;;;;;;;0.00;0.00;;;;;;;14.14;70.33;98973.44;5034425;28;20080;-61
2022/09/20 13:11:39;;;;;;;0.95;0.00;;;;;;;14.66;69.55;98967.53;5039569;28;20067;-61
2022/09/20 13:14:25;;;;;;;;;;;;;;;15.10;66.24;98967.44;5053093;28;20574;-61
2022/09/20 13:17:29;;;;;;;0.40;0.10;;;;;;;14.80;68.87;98976.13;5048451;28;20019;-62
2022/09/20 13:20:20;;;;;;;0.15;0.10;;;;;;;13.87;71.62;98974.69;5044822;28;20087;-60
2022/09/20 13:23:05;;;;;;;1.37;0.20;;;;;;;14.36;70.54;98979.63;5036733;28;20033;-60
2022/09/20 13:25:49;;;;;;;0.10;0.00;;;;;;;14.10;68.74;98969.41;5040324;28;20034;-62
2022/09/20 13:28:55;;;;;;;0.52;0.10;;;;;;;14.20;69.26;98975.56;5048050;28;20048;-60
2022/09/20 13:31:39;;;;;;;0.47;0.13;;;;;;;13.93;71.32;98971.56;5025993;28;20045;-62
2022/09/20 13:34:24;;;;;;;0.22;0.10;;;;;;;14.18;70.75;98974.03;5021594;28;20082;-61
2022/09/20 13:37:22;;;;;;;0.73;0.20;;;;;;;13.69;74.31;98961.19;5037483;28;20079;-60
2022/09/20 13:40:17;;;;;;;0.20;0.10;;;;;;;14.14;70.74;98963.75;5045276;28;20132;-60
2022/09/20 13:43:11;;;;;;;0.20;0.10;;;;;;;14.75;69.36;98960.66;5049850;28;20072;-60
2022/09/20 13:46:07;;;;;;;0.38;0.10;;;;;;;14.82;69.87;98963.66;5042526;28;20467;-61
2022/09/20 13:49:05;;;;;;;0.25;0.10;;;;;;;15.10;67.51;98951.59;5043397;28;20056;-60
2022/09/20 13:51:50;;;;;;;0.90;0.20;;;;;;;14.39;69.98;98953.84;5038468;28;20108;-62
2022/09/20 13:54:35;;;;;;;0.60;0.20;;;;;;;14.37;73.65;98953.16;5050444;28;20097;-62
2022/09/20 13:57:24;;;;;;;1.45;0.30;;;;;;;14.86;71.13;98958.00;5039767;28;20029;-63
2022/09/20 14:00:13;;;;;;;0.50;0.17;;;;;;;14.62;72.03;98955.56;5034878;28;20362;-59
2022/09/20 14:02:58;;;;;;;1.00;0.20;;;;;;;13.37;78.55;98960.91;5037645;28;20474;-60